Leopard Sea — 9VNR4 — position and weather

sailwx.info

Track history (hours):
 
Tides and Currents Weather Stations Pressure Air Temp Water Temp Dewpoint Dewpoint Depression Visibility Wind Speed Wind Dir Waves Ship Positions

Leopard Sea

Last reported at 2018-Feb-21 00:00 UTC. Time now 2018-Feb-21 03:55 UTC.
Position N 36°52' W 011°57'.

Length 183 m; draft 8.2 m.

Type: Ship. MMSI: 563200000.

Date/timePositionNaut miles runAvg speedWind from/ knotsBaromVisibWave heightAir tempDewpointWater temp
2018-Feb-21 00:00N 36°52' W 011°57'610.7
2018-Feb-20 23:27N 36°46' W 011°59'510.6
2018-Feb-20 23:00N 36°41' W 012°01'6711.0
2018-Feb-20 16:56N 35°37' W 012°23'43013.7
2018-Feb-19 09:31N 28°43' W 014°40'114.3
2018-Feb-19 09:29N 28°42' W 014°40'714.5
2018-Feb-19 09:00N 28°36' W 014°43'714.2
2018-Feb-19 08:30N 28°29' W 014°46'714.0
2018-Feb-19 08:00N 28°23' W 014°49'713.7
2018-Feb-19 07:30N 28°16' W 014°51'713.9
2018-Feb-19 07:00N 28°10' W 014°53'713.7
2018-Feb-19 06:30N 28°03' W 014°56'713.8
2018-Feb-19 06:00N 27°57' W 014°59'713.7
2018-Feb-19 05:31N 27°50' W 015°01'714.0
2018-Feb-19 05:00N 27°44' W 015°04'714.2
2018-Feb-19 04:29N 27°37' W 015°07'  
2018-Feb-11 01:47N 04°58' E 001°42'  
Track history (hours):
 
Tides and Currents Weather Stations Pressure Air Temp Water Temp Dewpoint Dewpoint Depression Visibility Wind Speed Wind Dir Waves Ship Positions

Leopard Sea

Last reported at 2018-Feb-21 00:00 UTC. Time now 2018-Feb-21 03:55 UTC.
Position N 36°52' W 011°57'.

Length 183 m; draft 8.2 m.

Type: Ship. MMSI: 563200000.

Date/timePositionNaut miles runAvg speedWind from/ knotsBaromVisibWave heightAir tempDewpointWater temp
2018-Feb-21 00:00N 36°52' W 011°57'610.7
2018-Feb-20 23:27N 36°46' W 011°59'510.6
2018-Feb-20 23:00N 36°41' W 012°01'6711.0
2018-Feb-20 16:56N 35°37' W 012°23'43013.7
2018-Feb-19 09:31N 28°43' W 014°40'114.3
2018-Feb-19 09:29N 28°42' W 014°40'714.5
2018-Feb-19 09:00N 28°36' W 014°43'714.2
2018-Feb-19 08:30N 28°29' W 014°46'714.0
2018-Feb-19 08:00N 28°23' W 014°49'713.7
2018-Feb-19 07:30N 28°16' W 014°51'713.9
2018-Feb-19 07:00N 28°10' W 014°53'713.7
2018-Feb-19 06:30N 28°03' W 014°56'713.8
2018-Feb-19 06:00N 27°57' W 014°59'713.7
2018-Feb-19 05:31N 27°50' W 015°01'714.0
2018-Feb-19 05:00N 27°44' W 015°04'714.2
2018-Feb-19 04:29N 27°37' W 015°07'  
2018-Feb-11 01:47N 04°58' E 001°42'  

Dump ship's entire track history